Time;durP1;ratioP1;P1;durP2;ratioP2;P2;SDS_P1;SDS_P2;PMS_P1;PMS_P2;Temp;Humidity;BMP_temperature;BMP_pressure;BME280_temperature;BME280_humidity;BME280_pressure;Samples;Min_cycle;Max_cycle;Signal;HPM_P1;HPM_P2
2022/08/30 00:02:59;;;;;;;3.67;2.10;;;;;;;19.33;100.00;99314.13;5116508;28;20279;-79
2022/08/30 00:05:30;;;;;;;4.83;2.30;;;;;;;19.45;100.00;99317.44;5109785;28;20654;-79
2022/08/30 00:08:01;;;;;;;4.47;2.83;;;;;;;19.40;100.00;99315.22;5112505;28;20195;-80
2022/08/30 00:10:30;;;;;;;5.50;3.07;;;;;;;19.43;100.00;99319.44;5109721;28;20218;-79
2022/08/30 00:13:01;;;;;;;5.53;2.40;;;;;;;19.26;100.00;99325.59;5108088;28;20219;-80
2022/08/30 00:15:31;;;;;;;4.60;2.60;;;;;;;19.17;100.00;99325.50;5113131;28;20226;-80
2022/08/30 00:18:00;;;;;;;6.47;2.67;;;;;;;19.09;100.00;99330.75;5109003;28;20213;-80
2022/08/30 00:20:31;;;;;;;4.40;2.30;;;;;;;19.17;100.00;99330.88;5108608;28;20198;-79
2022/08/30 00:23:00;;;;;;;4.20;2.17;;;;;;;19.18;100.00;99329.03;5114929;28;20270;-80
2022/08/30 00:25:29;;;;;;;4.93;2.30;;;;;;;19.13;100.00;99331.34;5112862;28;20603;-80
2022/08/30 00:27:57;;;;;;;6.03;2.17;;;;;;;18.86;100.00;99326.75;5113121;28;20191;-80
2022/08/30 00:30:26;;;;;;;5.30;2.73;;;;;;;18.89;100.00;99318.41;5105451;28;20191;-79
2022/08/30 00:32:59;;;;;;;3.83;2.67;;;;;;;19.15;100.00;99314.06;5107787;28;20183;-80
2022/08/30 00:35:28;;;;;;;5.33;2.80;;;;;;;19.15;100.00;99303.31;5029685;28;20226;-80
2022/08/30 00:37:56;;;;;;;5.77;2.47;;;;;;;19.10;100.00;99307.44;5031738;28;20197;-80
2022/08/30 00:40:26;;;;;;;5.00;2.37;;;;;;;19.19;100.00;99311.06;5029810;28;20282;-80
2022/08/30 00:42:56;;;;;;;3.80;2.10;;;;;;;19.18;100.00;99312.91;5030926;28;20190;-80
2022/08/30 00:45:30;;;;;;;3.37;2.17;;;;;;;19.02;100.00;99305.53;5030918;28;20190;-80
2022/08/30 00:48:01;;;;;;;6.00;2.50;;;;;;;19.02;100.00;99321.63;5032690;28;20222;-80
2022/08/30 00:50:33;;;;;;;3.67;2.70;;;;;;;18.85;100.00;99320.56;5023857;28;20198;-79
2022/08/30 00:53:05;;;;;;;3.83;2.47;;;;;;;18.92;100.00;99319.97;5049241;28;20214;-80
2022/08/30 00:55:34;;;;;;;3.40;2.10;;;;;;;19.11;100.00;99314.53;5108375;28;20202;-79
2022/08/30 00:58:12;;;;;;;6.13;2.50;;;;;;;19.07;100.00;99319.31;5111300;28;20191;-80
2022/08/30 01:00:40;;;;;;;5.37;2.33;;;;;;;18.98;100.00;99328.25;5109644;28;20530;-80
2022/08/30 01:03:13;;;;;;;4.67;2.33;;;;;;;18.86;100.00;99332.97;5109688;28;20196;-80
2022/08/30 01:05:42;;;;;;;4.07;2.50;;;;;;;18.89;100.00;99331.84;5106468;28;20194;-80
2022/08/30 01:08:11;;;;;;;6.70;2.73;;;;;;;18.93;100.00;99332.41;5105597;28;20222;-80
2022/08/30 01:10:39;;;;;;;2.70;2.10;;;;;;;19.05;100.00;99325.84;5114685;28;20668;-80
2022/08/30 01:13:09;;;;;;;6.30;2.30;;;;;;;19.11;100.00;99320.75;5113757;28;20211;-80
2022/08/30 01:15:38;;;;;;;4.60;2.40;;;;;;;19.17;100.00;99325.50;5105646;28;20273;-80
2022/08/30 01:18:10;;;;;;;6.53;2.50;;;;;;;19.03;100.00;99328.69;5112283;28;20217;-80
2022/08/30 01:20:48;;;;;;;4.80;2.40;;;;;;;18.47;100.00;99339.41;5114932;28;20591;-80
2022/08/30 01:23:20;;;;;;;4.43;2.43;;;;;;;18.53;100.00;99345.06;5071637;28;20199;-80
2022/08/30 01:25:52;;;;;;;5.83;2.60;;;;;;;18.06;100.00;99346.78;5109896;28;20183;-80
2022/08/30 01:28:23;;;;;;;3.93;2.50;;;;;;;18.34;100.00;99346.94;5028237;28;20225;-80
2022/08/30 01:30:52;;;;;;;4.87;2.70;;;;;;;18.43;100.00;99348.72;5026934;28;20256;-79
2022/08/30 01:33:22;;;;;;;4.37;2.50;;;;;;;18.49;100.00;99356.19;5024837;28;20256;-80
2022/08/30 01:35:53;;;;;;;5.83;2.50;;;;;;;18.52;100.00;99358.59;5029016;28;20276;-80
2022/08/30 01:38:29;;;;;;;5.97;2.30;;;;;;;18.44;100.00;99353.97;5030889;28;20268;-80
2022/08/30 01:40:58;;;;;;;5.23;2.30;;;;;;;18.06;100.00;99362.03;5026237;28;20289;-80
2022/08/30 01:43:27;;;;;;;4.07;2.30;;;;;;;18.02;100.00;99354.25;4989178;28;20658;-80
2022/08/30 01:45:56;;;;;;;3.43;2.20;;;;;;;18.21;100.00;99345.34;5005317;28;20394;-79
2022/08/30 01:48:27;;;;;;;5.97;2.50;;;;;;;18.32;100.00;99349.72;5046729;28;20256;-79
2022/08/30 01:50:58;;;;;;;4.53;2.33;;;;;;;18.22;100.00;99347.03;5047633;28;20201;-79
2022/08/30 01:53:28;;;;;;;4.53;2.20;;;;;;;18.36;100.00;99336.88;5044995;28;20221;-80
2022/08/30 01:55:57;;;;;;;4.20;2.10;;;;;;;18.43;100.00;99341.53;5046493;28;20201;-80
2022/08/30 01:58:31;;;;;;;3.47;2.17;;;;;;;18.40;100.00;99335.59;5048028;28;20201;-80
2022/08/30 02:00:59;;;;;;;6.00;2.60;;;;;;;18.48;100.00;99341.09;5055529;28;20210;-80
2022/08/30 02:03:31;;;;;;;3.67;2.90;;;;;;;18.47;100.00;99331.38;5089821;28;20635;-80
2022/08/30 02:06:03;;;;;;;4.80;2.40;;;;;;;18.60;100.00;99329.22;5091636;28;20248;-80
2022/08/30 02:08:33;;;;;;;3.67;2.37;;;;;;;18.38;100.00;99324.19;5088047;28;20195;-80
2022/08/30 02:11:02;;;;;;;4.47;2.20;;;;;;;18.50;100.00;99326.53;5089823;28;20195;-79
2022/08/30 02:13:30;;;;;;;5.70;2.63;;;;;;;18.33;100.00;99323.75;5093600;28;20220;-80
2022/08/30 02:15:59;;;;;;;5.90;2.43;;;;;;;18.19;100.00;99322.38;5092151;28;20454;-79
2022/08/30 02:18:29;;;;;;;4.77;2.50;;;;;;;18.06;100.00;99319.13;5093223;28;20268;-80
2022/08/30 02:20:57;;;;;;;6.17;2.97;;;;;;;17.97;100.00;99342.28;5093342;28;20227;-79
2022/08/30 02:23:25;;;;;;;4.97;2.77;;;;;;;17.71;100.00;99333.91;5091398;28;20278;-79
2022/08/30 02:26:00;;;;;;;3.90;2.80;;;;;;;17.53;100.00;99338.22;5088824;28;20198;-79
2022/08/30 02:28:28;;;;;;;6.83;2.80;;;;;;;17.51;100.00;99337.53;5093365;28;20227;-79
2022/08/30 02:30:57;;;;;;;3.93;2.60;;;;;;;17.40;100.00;99333.13;5088758;28;20371;-79
2022/08/30 02:33:25;;;;;;;5.63;2.70;;;;;;;17.29;100.00;99338.59;5093148;28;20219;-79
2022/08/30 02:35:54;;;;;;;3.73;2.40;;;;;;;17.29;100.00;99339.44;5087142;28;20239;-79
2022/08/30 02:38:25;;;;;;;5.10;2.57;;;;;;;17.29;100.00;99336.78;5085347;28;20241;-79
2022/08/30 02:40:54;;;;;;;4.20;2.80;;;;;;;17.46;100.00;99337.91;5088502;28;20203;-79
2022/08/30 02:43:24;;;;;;;5.37;2.57;;;;;;;17.41;100.00;99340.19;5087681;28;20195;-79
2022/08/30 02:45:53;;;;;;;6.10;2.53;;;;;;;17.44;100.00;99342.56;5091949;28;20188;-79
2022/08/30 02:48:21;;;;;;;4.93;2.60;;;;;;;17.43;100.00;99327.50;5109824;28;20700;-78
2022/08/30 02:50:52;;;;;;;4.00;2.57;;;;;;;17.46;100.00;99329.88;5106807;28;20278;-79
2022/08/30 02:53:20;;;;;;;4.83;2.90;;;;;;;17.51;100.00;99330.34;5103089;28;20225;-79
2022/08/30 02:55:54;;;;;;;6.73;2.63;;;;;;;17.26;100.00;99326.31;5107885;28;20202;-79
2022/08/30 02:58:26;;;;;;;4.03;2.60;;;;;;;17.37;100.00;99322.66;5109329;28;20191;-80
2022/08/30 03:00:58;;;;;;;4.93;3.07;;;;;;;17.33;100.00;99324.78;5107924;28;20256;-81
2022/08/30 03:03:28;;;;;;;4.80;2.57;;;;;;;17.43;100.00;99322.13;5104414;28;20205;-82
2022/08/30 03:05:56;;;;;;;4.40;2.73;;;;;;;17.56;100.00;99320.03;5106697;28;20232;-80
2022/08/30 03:08:24;;;;;;;5.43;2.73;;;;;;;17.60;100.00;99318.78;5104653;28;20205;-80
2022/08/30 03:10:55;;;;;;;5.33;2.77;;;;;;;17.68;100.00;99316.28;5109282;28;20199;-80
2022/08/30 03:13:24;;;;;;;6.37;2.73;;;;;;;17.60;100.00;99328.66;5056529;28;20210;-79
2022/08/30 03:15:53;;;;;;;7.80;2.97;;;;;;;17.42;100.00;99317.78;5110484;28;20617;-80
2022/08/30 03:18:25;;;;;;;4.67;2.93;;;;;;;17.38;100.00;99317.22;5104622;28;20191;-80
2022/08/30 03:20:56;;;;;;;6.67;2.83;;;;;;;17.41;100.00;99322.28;5107242;28;20194;-80
2022/08/30 03:23:27;;;;;;;4.53;2.60;;;;;;;17.09;100.00;99330.50;5103641;28;20195;-79
2022/08/30 03:25:57;;;;;;;3.93;2.70;;;;;;;17.28;100.00;99323.53;5058436;28;20191;-80
2022/08/30 03:28:26;;;;;;;3.70;2.57;;;;;;;17.29;100.00;99326.06;5104829;28;20207;-80
2022/08/30 03:30:56;;;;;;;4.70;2.60;;;;;;;17.38;100.00;99321.72;5028060;28;20217;-79
2022/08/30 03:33:27;;;;;;;4.87;2.97;;;;;;;17.38;100.00;99313.69;5023675;28;20232;-80
2022/08/30 03:35:55;;;;;;;4.80;2.83;;;;;;;17.39;100.00;99318.91;5034349;28;20273;-80
2022/08/30 03:38:24;;;;;;;5.03;3.03;;;;;;;17.37;100.00;99314.63;4981889;28;20217;-80
2022/08/30 03:40:53;;;;;;;5.53;2.77;;;;;;;17.42;100.00;99321.28;5028996;28;20194;-80
2022/08/30 03:43:22;;;;;;;7.53;3.07;;;;;;;17.51;100.00;99318.78;5025840;28;20194;-80
2022/08/30 03:45:51;;;;;;;4.63;2.87;;;;;;;17.52;100.00;99324.00;5031213;28;20197;-80
2022/08/30 03:48:21;;;;;;;4.77;2.80;;;;;;;17.17;100.00;99327.13;5046714;28;20500;-80
2022/08/30 03:50:49;;;;;;;5.60;2.90;;;;;;;17.27;100.00;99330.69;5064174;28;20191;-79
2022/08/30 03:53:23;;;;;;;5.73;2.60;;;;;;;17.27;100.00;99328.00;5108175;28;20302;-80
2022/08/30 03:55:54;;;;;;;4.07;2.77;;;;;;;17.36;100.00;99329.84;5025335;28;20209;-80
2022/08/30 03:58:24;;;;;;;4.40;2.60;;;;;;;17.31;100.00;99326.75;5033895;28;20194;-80
2022/08/30 04:00:53;;;;;;;4.83;2.80;;;;;;;17.47;100.00;99336.97;5030548;28;20281;-80
2022/08/30 04:03:24;;;;;;;6.80;3.07;;;;;;;17.58;100.00;99336.00;5025897;28;20213;-80
2022/08/30 04:05:54;;;;;;;7.93;3.10;;;;;;;17.43;100.00;99339.03;5022861;28;20208;-80
2022/08/30 04:08:24;;;;;;;7.03;3.37;;;;;;;17.54;100.00;99342.59;5025159;28;20202;-80
2022/08/30 04:10:54;;;;;;;7.33;3.30;;;;;;;17.43;100.00;99344.41;4989713;28;20199;-80
2022/08/30 04:13:24;;;;;;;6.60;3.03;;;;;;;17.35;100.00;99344.22;5011569;28;20299;-80
2022/08/30 04:15:53;;;;;;;4.50;3.07;;;;;;;17.33;100.00;99348.88;5072416;28;20200;-80
2022/08/30 04:18:23;;;;;;;5.27;2.83;;;;;;;17.48;100.00;99348.53;5073366;28;20193;-79
2022/08/30 04:20:52;;;;;;;6.87;3.27;;;;;;;17.56;100.00;99337.94;5073468;28;20275;-79
2022/08/30 04:23:23;;;;;;;5.93;3.10;;;;;;;17.76;100.00;99338.84;5072102;28;20279;-79
2022/08/30 04:25:51;;;;;;;5.43;3.27;;;;;;;17.73;100.00;99335.47;5072003;28;20200;-80
2022/08/30 04:28:19;;;;;;;5.30;2.97;;;;;;;17.86;100.00;99334.38;5076057;28;20195;-80
2022/08/30 04:30:48;;;;;;;6.87;3.13;;;;;;;17.93;100.00;99332.81;5107565;28;20296;-80
2022/08/30 04:33:18;;;;;;;5.30;3.23;;;;;;;17.74;100.00;99339.84;5106503;28;20214;-80
2022/08/30 04:35:50;;;;;;;5.17;3.17;;;;;;;17.77;100.00;99338.72;5110589;28;20191;-80
2022/08/30 04:38:21;;;;;;;5.47;3.23;;;;;;;17.67;100.00;99341.38;5111916;28;20236;-80
2022/08/30 04:40:54;;;;;;;4.47;3.23;;;;;;;17.65;100.00;99340.63;5110519;28;20227;-80
2022/08/30 04:43:23;;;;;;;6.37;2.97;;;;;;;17.73;100.00;99345.34;5110545;28;20199;-80
2022/08/30 04:45:52;;;;;;;8.20;3.30;;;;;;;17.66;100.00;99341.47;5111670;28;20226;-79
2022/08/30 04:48:22;;;;;;;6.07;3.53;;;;;;;17.51;100.00;99343.72;5109864;28;20226;-80
2022/08/30 04:50:55;;;;;;;6.17;3.47;;;;;;;17.70;100.00;99342.94;5107650;28;20195;-79
2022/08/30 04:53:24;;;;;;;7.37;3.20;;;;;;;17.80;100.00;99342.97;5112974;28;20226;-80
2022/08/30 04:55:53;;;;;;;6.77;3.30;;;;;;;17.74;100.00;99342.50;5107550;28;20266;-79
2022/08/30 04:58:22;;;;;;;7.03;3.10;;;;;;;17.46;100.00;99338.75;5110173;28;20199;-80
2022/08/30 05:00:50;;;;;;;6.80;3.40;;;;;;;17.77;100.00;99338.72;5111945;28;20226;-79
2022/08/30 05:03:20;;;;;;;8.13;3.50;;;;;;;17.69;100.00;99349.25;5108230;28;20191;-79
2022/08/30 05:05:54;;;;;;;7.80;3.43;;;;;;;17.74;100.00;99349.72;5111207;28;20243;-80
2022/08/30 05:08:23;;;;;;;5.47;3.20;;;;;;;17.86;100.00;99350.44;5107714;28;20199;-80
2022/08/30 05:10:52;;;;;;;6.33;3.10;;;;;;;17.82;100.00;99354.38;5061714;28;20187;-80
2022/08/30 05:13:21;;;;;;;6.50;3.47;;;;;;;17.81;100.00;99352.69;5076798;28;20288;-80
2022/08/30 05:16:06;;;;;;;6.13;3.10;;;;;;;17.82;100.00;99359.75;5114351;28;20195;-80
2022/08/30 05:18:36;;;;;;;7.43;3.37;;;;;;;17.91;100.00;99362.44;5108993;28;20289;-79
2022/08/30 05:21:11;;;;;;;5.77;3.17;;;;;;;17.89;100.00;99353.69;5111337;28;20195;-79
2022/08/30 05:23:43;;;;;;;6.97;3.63;;;;;;;17.79;100.00;99368.06;5110902;28;20202;-80
2022/08/30 05:26:13;;;;;;;5.77;3.20;;;;;;;17.80;100.00;99364.41;5112068;28;20203;-80
2022/08/30 05:28:42;;;;;;;6.90;3.37;;;;;;;17.83;100.00;99369.47;5100436;28;20198;-79
2022/08/30 05:31:17;;;;;;;7.43;3.50;;;;;;;17.92;100.00;99361.44;5112966;28;20199;-79
2022/08/30 05:33:46;;;;;;;5.97;3.63;;;;;;;17.90;100.00;99368.78;5114803;28;20222;-80
2022/08/30 05:36:23;;;;;;;6.83;3.23;;;;;;;17.66;100.00;99365.59;5108544;28;20191;-80
2022/08/30 05:38:53;;;;;;;5.50;3.43;;;;;;;17.60;100.00;99376.88;5108251;28;20194;-79
2022/08/30 05:41:23;;;;;;;7.33;3.43;;;;;;;17.54;100.00;99377.41;5111682;28;20199;-80
2022/08/30 05:43:54;;;;;;;5.77;3.70;;;;;;;17.55;100.00;99376.44;5110023;28;20191;-80
2022/08/30 05:46:23;;;;;;;5.90;3.43;;;;;;;17.60;100.00;99380.41;5110677;28;20658;-79
2022/08/30 05:48:52;;;;;;;5.57;3.60;;;;;;;17.76;100.00;99381.72;5114562;28;20191;-80
2022/08/30 05:51:27;;;;;;;6.77;3.43;;;;;;;17.89;100.00;99376.97;5110472;28;20213;-79
2022/08/30 05:53:57;;;;;;;4.60;3.50;;;;;;;17.84;100.00;99381.88;5109382;28;20221;-79
2022/08/30 05:56:28;;;;;;;6.80;3.47;;;;;;;17.83;100.00;99372.16;5016543;28;20224;-80
2022/08/30 05:58:58;;;;;;;8.60;3.83;;;;;;;17.99;100.00;99369.78;5048924;28;20656;-80
2022/08/30 06:01:30;;;;;;;8.47;3.10;;;;;;;18.15;100.00;99371.91;5049317;28;20212;-80
2022/08/30 06:04:00;;;;;;;5.90;3.40;;;;;;;18.05;100.00;99368.34;5046223;28;20201;-80
2022/08/30 06:06:34;;;;;;;5.73;3.17;;;;;;;18.03;100.00;99371.19;5046344;28;20279;-80
2022/08/30 06:09:04;;;;;;;8.37;3.77;;;;;;;18.16;100.00;99376.28;5045644;28;20185;-80
2022/08/30 06:11:34;;;;;;;6.00;3.27;;;;;;;18.33;100.00;99375.53;5048378;28;20276;-80
2022/08/30 06:14:03;;;;;;;6.43;3.40;;;;;;;18.25;100.00;99373.59;5065423;28;20210;-80
2022/08/30 06:16:38;;;;;;;6.17;3.23;;;;;;;18.47;100.00;99382.31;5110069;28;20202;-80
2022/08/30 06:19:11;;;;;;;5.40;3.33;;;;;;;18.56;100.00;99379.63;5114471;28;20273;-80
2022/08/30 06:21:42;;;;;;;6.30;3.20;;;;;;;18.62;100.00;99380.88;5092522;28;20202;-80
2022/08/30 06:24:17;;;;;;;5.43;3.53;;;;;;;18.69;100.00;99387.41;5113605;28;20277;-79
2022/08/30 06:26:47;;;;;;;4.90;3.30;;;;;;;18.72;100.00;99387.13;5108664;28;20278;-79
2022/08/30 06:29:18;;;;;;;10.00;3.50;;;;;;;18.64;100.00;99388.81;5114370;28;20199;-79
2022/08/30 06:31:47;;;;;;;9.77;3.30;;;;;;;18.70;100.00;99391.78;5108545;28;20308;-79
2022/08/30 06:34:17;;;;;;;6.37;3.20;;;;;;;18.70;100.00;99386.41;5107487;28;20210;-79
2022/08/30 06:36:48;;;;;;;7.00;3.20;;;;;;;18.71;100.00;99393.47;5108034;28;20191;-79
2022/08/30 06:39:16;;;;;;;5.70;2.97;;;;;;;18.73;100.00;99388.81;5107706;28;20209;-79
2022/08/30 06:41:44;;;;;;;8.20;3.60;;;;;;;18.93;100.00;99395.00;5105682;28;20274;-79
2022/08/30 06:44:13;;;;;;;5.03;3.20;;;;;;;19.08;100.00;99388.16;5109014;28;20201;-80
2022/08/30 06:46:42;;;;;;;7.40;3.40;;;;;;;19.28;100.00;99385.38;5114072;28;20234;-80
2022/08/30 06:49:11;;;;;;;3.27;2.73;;;;;;;19.38;100.00;99392.41;5105843;28;20187;-80
2022/08/30 06:51:40;;;;;;;6.17;2.57;;;;;;;19.60;100.00;99383.16;5059432;28;20199;-79
2022/08/30 06:54:13;;;;;;;5.73;3.27;;;;;;;19.30;100.00;99383.38;5108646;28;20194;-80
2022/08/30 06:56:42;;;;;;;5.80;3.17;;;;;;;19.10;100.00;99386.16;5110311;28;20231;-80
2022/08/30 06:59:26;;;;;;;6.13;3.13;;;;;;;19.26;100.00;99390.91;5114647;28;20199;-80
2022/08/30 07:01:54;;;;;;;6.10;2.90;;;;;;;19.15;100.00;99393.78;5111185;28;20214;-79
2022/08/30 07:04:23;;;;;;;10.50;3.30;;;;;;;19.34;100.00;99384.81;5106904;28;20282;-81
2022/08/30 07:06:51;;;;;;;7.30;3.10;;;;;;;19.20;100.00;99386.13;5115785;28;20757;-80
2022/08/30 07:09:22;;;;;;;6.43;3.30;;;;;;;19.35;100.00;99384.66;5114838;28;20187;-79
2022/08/30 07:11:52;;;;;;;6.70;3.33;;;;;;;19.52;100.00;99383.03;5033744;28;20193;-79
2022/08/30 07:14:21;;;;;;;7.73;3.20;;;;;;;19.66;100.00;99385.22;5031468;28;20688;-80
2022/08/30 07:16:50;;;;;;;6.73;3.30;;;;;;;19.68;100.00;99385.91;4985499;28;20205;-80
2022/08/30 07:19:19;;;;;;;6.17;3.30;;;;;;;19.78;100.00;99379.63;5032252;28;20222;-80
2022/08/30 07:21:49;;;;;;;8.17;3.13;;;;;;;19.96;100.00;99383.19;5034478;28;20226;-80
2022/08/30 07:24:18;;;;;;;8.17;3.33;;;;;;;19.70;100.00;99383.09;5027283;28;20257;-79
2022/08/30 07:26:50;;;;;;;6.43;3.27;;;;;;;20.10;100.00;99384.53;5032839;28;20232;-80
2022/08/30 07:29:22;;;;;;;5.77;3.30;;;;;;;20.17;100.00;99382.88;5051791;28;20194;-80
2022/08/30 07:31:51;;;;;;;4.57;3.07;;;;;;;20.34;100.00;99390.09;5116536;28;20255;-80
2022/08/30 07:34:20;;;;;;;4.23;2.60;;;;;;;20.37;100.00;99388.97;5114731;28;20199;-80
2022/08/30 07:36:52;;;;;;;4.50;2.60;;;;;;;20.80;100.00;99390.84;5120787;28;20221;-80
2022/08/30 07:39:21;;;;;;;5.50;2.60;;;;;;;21.09;100.00;99390.53;5120938;28;20203;-80
2022/08/30 07:41:51;;;;;;;3.63;2.53;;;;;;;21.33;100.00;99390.69;5118204;28;20203;-79
2022/08/30 07:44:20;;;;;;;8.03;2.90;;;;;;;21.32;100.00;99390.84;5121062;28;20650;-80
2022/08/30 07:46:52;;;;;;;4.90;2.50;;;;;;;21.08;100.00;99399.63;5119358;28;20245;-80
2022/08/30 07:49:21;;;;;;;6.95;2.78;;;;;;;21.12;100.00;99390.19;5110049;28;20199;-80
2022/08/30 07:51:50;;;;;;;7.43;2.60;;;;;;;21.29;100.00;99399.25;5114198;28;20222;-80
2022/08/30 07:54:19;;;;;;;5.30;2.53;;;;;;;21.43;100.00;99394.13;5115363;28;20202;-80
2022/08/30 07:56:48;;;;;;;6.13;2.43;;;;;;;21.67;98.80;99401.44;5110860;28;20298;-80
2022/08/30 07:59:18;;;;;;;6.13;2.70;;;;;;;21.53;100.00;99399.38;5108197;28;20199;-81
2022/08/30 08:01:46;;;;;;;5.50;2.93;;;;;;;21.43;100.00;99399.50;5111798;28;20214;-80
2022/08/30 08:04:15;;;;;;;7.22;3.03;;;;;;;21.63;100.00;99399.25;5111715;28;20190;-80
2022/08/30 08:06:44;;;;;;;8.75;2.50;;;;;;;21.81;100.00;99399.13;5112274;28;20199;-80
2022/08/30 08:09:12;;;;;;;8.70;2.72;;;;;;;21.84;100.00;99401.50;5105780;28;20278;-80
2022/08/30 08:11:42;;;;;;;10.43;2.83;;;;;;;21.59;100.00;99408.66;5107893;28;20259;-80
2022/08/30 08:14:11;;;;;;;5.27;2.83;;;;;;;21.56;100.00;99401.75;5105443;28;20222;-80
2022/08/30 08:16:43;;;;;;;6.35;2.80;;;;;;;21.66;98.66;99407.00;5112131;28;20211;-80
2022/08/30 08:19:11;;;;;;;6.53;2.63;;;;;;;21.73;97.29;99394.56;5110126;28;20661;-80
2022/08/30 08:21:40;;;;;;;6.60;2.90;;;;;;;21.57;98.75;99410.66;5115637;28;20201;-80
2022/08/30 08:24:08;;;;;;;5.70;2.50;;;;;;;21.71;97.94;99401.94;5112727;28;20290;-80
2022/08/30 08:26:38;;;;;;;4.45;2.45;;;;;;;21.76;96.60;99405.00;5108501;28;20199;-80
2022/08/30 08:29:12;;;;;;;4.28;2.58;;;;;;;22.18;95.68;99396.03;5112852;28;20244;-80
2022/08/30 08:31:45;;;;;;;3.33;2.27;;;;;;;22.19;93.82;99395.00;5109332;28;20195;-80
2022/08/30 08:34:17;;;;;;;5.60;2.60;;;;;;;22.45;91.73;99402.97;5109825;28;20195;-80
2022/08/30 08:36:47;;;;;;;4.37;2.60;;;;;;;22.52;90.36;99404.00;5113554;28;20668;-80
2022/08/30 08:39:18;;;;;;;6.55;2.72;;;;;;;22.51;91.08;99399.63;5107727;28;20254;-80
2022/08/30 08:42:03;;;;;;;4.38;2.53;;;;;;;22.84;88.81;99403.16;5107788;28;20304;-80
2022/08/30 08:44:47;;;;;;;6.93;2.78;;;;;;;22.78;87.10;99401.13;5111430;28;20218;-80
2022/08/30 08:47:21;;;;;;;5.85;2.50;;;;;;;22.72;86.32;99399.94;5106776;28;20301;-80
2022/08/30 08:50:11;;;;;;;5.35;2.40;;;;;;;23.01;85.66;99404.84;5111314;28;20195;-80
2022/08/30 08:55:55;;;;;;;5.43;2.47;;;;;;;22.65;86.57;99406.19;5112540;28;20222;-80
2022/08/30 08:58:26;;;;;;;3.25;2.20;;;;;;;23.00;83.73;99395.03;5106173;28;20206;-80
2022/08/30 09:00:56;;;;;;;6.07;2.78;;;;;;;23.06;82.07;99398.91;5115361;28;20274;-81
2022/08/30 09:03:29;;;;;;;8.02;3.00;;;;;;;23.34;80.83;99393.91;5112361;28;20191;-80
2022/08/30 09:05:59;;;;;;;4.30;2.25;;;;;;;23.60;77.91;99397.25;5111596;28;20275;-80
2022/08/30 09:08:28;;;;;;;5.15;2.20;;;;;;;23.98;74.55;99392.81;5114237;28;20199;-80
2022/08/30 09:11:00;;;;;;;4.18;2.35;;;;;;;23.84;73.34;99390.03;5109429;28;20202;-80
2022/08/30 09:13:30;;;;;;;4.45;2.40;;;;;;;23.92;72.49;99384.56;5106682;28;20203;-80
2022/08/30 09:15:59;;;;;;;5.10;2.42;;;;;;;24.27;70.33;99383.16;5110802;28;20226;-80
2022/08/30 09:18:49;;;;;;;6.75;2.47;;;;;;;24.49;69.39;99386.91;5109905;28;20199;-80
2022/08/30 09:21:26;;;;;;;4.75;2.50;;;;;;;24.71;69.30;99374.38;5109946;28;20232;-80
2022/08/30 09:23:58;;;;;;;4.10;2.38;;;;;;;25.06;64.58;99375.56;5107936;28;20199;-80
2022/08/30 09:26:33;;;;;;;3.80;2.25;;;;;;;24.94;65.53;99367.00;5108566;28;20277;-80
2022/08/30 09:29:03;;;;;;;7.13;2.30;;;;;;;25.20;62.40;99371.19;5106182;28;20277;-80
2022/08/30 09:31:45;;;;;;;6.45;2.67;;;;;;;25.34;62.56;99360.31;5106290;28;20314;-79
2022/08/30 09:34:19;;;;;;;5.15;2.28;;;;;;;25.65;59.80;99364.66;5106873;28;20213;-80
2022/08/30 09:36:52;;;;;;;4.35;2.30;;;;;;;25.95;57.70;99362.75;5106233;28;20225;-80
2022/08/30 09:39:29;;;;;;;4.18;2.53;;;;;;;26.19;56.58;99367.81;5110423;28;20191;-80
2022/08/30 09:42:15;;;;;;;4.15;2.42;;;;;;;26.67;50.29;99361.81;5111827;28;20206;-80
2022/08/30 09:44:44;;;;;;;4.85;2.50;;;;;;;26.50;51.14;99351.22;5114642;28;20194;-81
2022/08/30 09:47:21;;;;;;;5.78;2.35;;;;;;;26.55;50.20;99361.50;5106747;28;20230;-80
2022/08/30 09:50:04;;;;;;;5.22;2.38;;;;;;;26.50;50.78;99347.66;5110985;28;20206;-80
2022/08/30 09:52:45;;;;;;;5.10;2.30;;;;;;;25.80;52.52;99346.53;5108480;28;20246;-81
2022/08/30 09:55:35;;;;;;;6.75;2.55;;;;;;;25.56;53.29;99352.25;5114620;28;20193;-80
2022/08/30 09:58:11;;;;;;;3.05;2.45;;;;;;;26.09;50.81;99344.75;5107811;28;20195;-80
2022/08/30 10:00:47;;;;;;;5.38;2.00;;;;;;;25.95;51.07;99354.59;5102574;28;20194;-80
2022/08/30 10:03:30;;;;;;;3.33;2.10;;;;;;;26.06;47.40;99343.25;5109550;28;20202;-80
2022/08/30 10:06:18;;;;;;;5.05;2.40;;;;;;;25.59;48.63;99350.00;5109707;28;20199;-81
2022/08/30 10:08:58;;;;;;;3.95;2.10;;;;;;;25.71;49.14;99344.13;5106132;28;20183;-80
2022/08/30 10:11:33;;;;;;;5.32;1.95;;;;;;;26.00;48.36;99345.91;5111855;28;20269;-80
2022/08/30 10:14:28;;;;;;;3.92;2.17;;;;;;;26.25;47.92;99345.34;5113937;28;20229;-80
2022/08/30 10:17:04;;;;;;;5.63;2.50;;;;;;;26.76;46.03;99339.72;5109535;28;20215;-80
2022/08/30 10:19:46;;;;;;;5.50;2.40;;;;;;;27.04;44.16;99328.03;5107185;28;20202;-80
2022/08/30 10:22:24;;;;;;;4.68;2.30;;;;;;;27.40;41.23;99330.50;5103989;28;20203;-81
2022/08/30 10:25:00;;;;;;;6.43;2.35;;;;;;;27.41;41.26;99326.75;5106876;28;20202;-81
2022/08/30 10:27:34;;;;;;;4.97;2.20;;;;;;;27.22;42.64;99324.78;5109166;28;20205;-81
2022/08/30 10:30:06;;;;;;;2.70;2.05;;;;;;;27.26;41.62;99321.44;5114278;28;20227;-81
2022/08/30 10:32:39;;;;;;;3.78;2.10;;;;;;;27.77;41.63;99322.91;5108816;28;20529;-80
2022/08/30 10:35:10;;;;;;;3.97;1.88;;;;;;;28.14;40.97;99322.38;5105543;28;20191;-81
2022/08/30 10:37:48;;;;;;;5.93;2.10;;;;;;;28.07;41.49;99323.41;5109717;28;20207;-81
2022/08/30 10:43:27;;;;;;;5.80;2.15;;;;;;;28.03;42.31;99311.25;5070447;28;20196;-80
2022/08/30 10:46:00;;;;;;;2.78;2.20;;;;;;;28.29;41.75;99321.38;5063361;28;20193;-80
2022/08/30 10:48:35;;;;;;;4.15;2.33;;;;;;;27.89;41.80;99304.94;5063124;28;20228;-80
2022/08/30 10:51:10;;;;;;;3.72;2.30;;;;;;;28.24;40.63;99311.06;5068334;28;20279;-80
2022/08/30 10:53:48;;;;;;;3.90;2.00;;;;;;;28.53;39.42;99312.56;5065982;28;20354;-80
2022/08/30 10:56:32;;;;;;;3.63;2.22;;;;;;;28.94;38.82;99314.22;5066295;28;20279;-80
2022/08/30 10:59:05;;;;;;;3.67;2.17;;;;;;;28.06;37.36;99308.09;5043916;28;20192;-82
2022/08/30 11:02:05;;;;;;;2.95;2.03;;;;;;;28.91;36.53;99303.75;5047644;28;20199;-80
2022/08/30 11:05:07;;;;;;;3.53;2.35;;;;;;;29.19;36.32;99298.00;5074860;28;20208;-80
2022/08/30 11:07:44;;;;;;;3.85;2.28;;;;;;;29.42;36.90;99302.94;5027601;28;20194;-80
2022/08/30 11:10:34;;;;;;;4.22;2.40;;;;;;;29.35;36.60;99297.53;4971746;28;20215;-80
2022/08/30 11:13:08;;;;;;;4.80;2.42;;;;;;;29.19;36.97;99298.00;4970580;28;20199;-80
2022/08/30 11:15:57;;;;;;;3.85;2.03;;;;;;;29.38;36.44;99297.09;4965746;28;20195;-80
2022/08/30 11:18:30;;;;;;;4.70;2.10;;;;;;;30.11;35.96;99300.31;4971632;28;20250;-80
2022/08/30 11:21:18;;;;;;;4.30;2.20;;;;;;;30.64;35.37;99291.72;4968188;28;20339;-80
2022/08/30 11:24:09;;;;;;;4.35;2.33;;;;;;;30.95;35.74;99298.13;4982894;28;20677;-80
2022/08/30 11:27:00;;;;;;;5.22;2.25;;;;;;;31.03;35.14;99284.16;5026879;28;20341;-80
2022/08/30 11:29:39;;;;;;;3.45;2.30;;;;;;;31.11;35.77;99278.38;5081638;28;20599;-80
2022/08/30 11:32:58;;;;;;;8.75;2.40;;;;;;;30.78;36.34;99278.72;5090916;28;20203;-80
2022/08/30 11:35:39;;;;;;;6.70;2.58;;;;;;;30.88;36.13;99281.78;5090703;28;20227;-80
2022/08/30 11:38:21;;;;;;;2.83;2.42;;;;;;;31.02;36.28;99271.53;5104713;28;20222;-81
2022/08/30 11:41:06;;;;;;;6.03;2.33;;;;;;;30.58;37.15;99276.16;5109992;28;20201;-80
2022/08/30 11:43:54;;;;;;;7.05;2.42;;;;;;;30.80;36.76;99278.53;5107521;28;20195;-80
2022/08/30 11:46:40;;;;;;;4.60;2.40;;;;;;;30.43;37.35;99279.25;5102650;28;20195;-80
2022/08/30 11:49:44;;;;;;;4.35;2.55;;;;;;;30.56;37.31;99275.53;5103745;28;20205;-80
2022/08/30 11:52:28;;;;;;;3.22;2.45;;;;;;;31.05;36.79;99262.84;5107495;28;20199;-80
2022/08/30 11:55:12;;;;;;;5.65;4.13;;;;;;;31.25;36.43;99262.66;5104227;28;20195;-80
2022/08/30 11:57:48;;;;;;;4.55;2.47;;;;;;;31.41;36.09;99262.03;5108072;28;20211;-80
2022/08/30 12:00:30;;;;;;;4.95;2.90;;;;;;;31.14;36.72;99257.91;5105209;28;20203;-80